Time;durP1;ratioP1;P1;durP2;ratioP2;P2;SDS_P1;SDS_P2;PMS_P1;PMS_P2;Temp;Humidity;BMP_temperature;BMP_pressure;BME280_temperature;BME280_humidity;BME280_pressure;Samples;Min_cycle;Max_cycle;Signal;HPM_P1;HPM_P2
2022/05/30 00:00:18;;;;;;;10.50;4.50;;;8.10;1.00;;;;;;4991899;28;20402;-55
2022/05/30 00:02:44;;;;;;;8.80;5.10;;;8.10;1.00;;;;;;4992860;28;20895;-61
2022/05/30 00:05:11;;;;;;;11.07;4.90;;;8.10;1.00;;;;;;4992168;28;20406;-58
2022/05/30 00:07:38;;;;;;;9.73;5.13;;;8.10;1.00;;;;;;4991386;28;20860;-59
2022/05/30 00:10:05;;;;;;;11.10;4.85;;;8.00;99.90;;;;;;4992269;28;20403;-59
2022/05/30 00:12:32;;;;;;;8.30;4.70;;;8.00;99.90;;;;;;5008855;28;20411;-59
2022/05/30 00:14:57;;;;;;;9.02;4.90;;;8.00;99.90;;;;;;5005018;28;20504;-59
2022/05/30 00:17:23;;;;;;;9.45;4.68;;;8.00;99.90;;;;;;4992429;28;20430;-59
2022/05/30 00:19:48;;;;;;;8.23;4.50;;;8.10;99.90;;;;;;4988479;28;20408;-60
2022/05/30 00:22:14;;;;;;;8.40;4.90;;;8.10;99.90;;;;;;5006610;28;20487;-56
2022/05/30 00:24:41;;;;;;;7.70;4.32;;;8.20;99.90;;;;;;4989887;28;20418;-59
2022/05/30 00:27:08;;;;;;;7.97;4.20;;;8.20;99.90;;;;;;4986110;28;20454;-60
2022/05/30 00:29:34;;;;;;;8.57;4.50;;;8.10;99.90;;;;;;4991710;28;20413;-57
2022/05/30 00:32:00;;;;;;;8.07;4.67;;;8.10;99.90;;;;;;5008363;28;20468;-59
2022/05/30 00:34:26;;;;;;;7.80;4.30;;;8.10;99.90;;;;;;5008208;28;20516;-58
2022/05/30 00:36:52;;;;;;;9.00;4.55;;;8.00;99.90;;;;;;4975474;28;20429;-58
2022/05/30 00:39:18;;;;;;;9.27;4.57;;;7.90;99.90;;;;;;4990937;28;20444;-60
2022/05/30 00:41:44;;;;;;;10.00;4.50;;;7.90;99.90;;;;;;5007715;28;20424;-59
2022/05/30 00:44:10;;;;;;;8.15;4.10;;;7.90;99.90;;;;;;5005953;28;20739;-58
2022/05/30 00:46:35;;;;;;;9.23;4.77;;;8.00;99.90;;;;;;5004251;28;20418;-58
2022/05/30 00:49:07;;;;;;;10.93;4.80;;;7.90;99.90;;;;;;4992866;28;20878;-58
2022/05/30 00:51:46;;;;;;;7.13;4.10;;;7.90;99.90;;;;;;4990359;28;20490;-58
2022/05/30 00:54:16;;;;;;;10.18;4.80;;;7.90;99.90;;;;;;4992329;28;20858;-58
2022/05/30 00:56:49;;;;;;;8.73;4.57;;;7.80;99.90;;;;;;4987515;28;20411;-58
2022/05/30 00:59:15;;;;;;;8.60;4.10;;;7.70;99.90;;;;;;5008014;28;20405;-55
2022/05/30 01:01:41;;;;;;;8.35;5.00;;;7.70;99.90;;;;;;4998362;28;20401;-58
2022/05/30 01:06:54;;;;;;;11.77;5.03;;;7.80;99.90;;;;;;4985645;28;20495;-58
2022/05/30 01:09:28;;;;;;;8.80;4.85;;;7.60;99.90;;;;;;5009826;28;20901;-58
2022/05/30 01:12:00;;;;;;;10.80;4.70;;;7.60;1.00;;;;;;4999716;28;20431;-58
2022/05/30 01:14:30;;;;;;;8.98;5.20;;;7.60;1.00;;;;;;4987056;28;20414;-58
2022/05/30 01:16:56;;;;;;;9.33;4.90;;;8.30;1.00;;;;;;4992258;28;20390;-58
2022/05/30 01:19:59;;;;;;;9.85;4.93;;;7.70;1.00;;;;;;4999262;28;20484;-58
2022/05/30 01:22:45;;;;;;;9.63;5.10;;;7.60;1.00;;;;;;4996905;28;20430;-58
2022/05/30 01:25:29;;;;;;;9.40;5.10;;;7.60;1.00;;;;;;4990989;28;20406;-58
2022/05/30 01:28:33;;;;;;;8.23;5.00;;;7.60;1.00;;;;;;4989701;28;20425;-58
2022/05/30 01:30:58;;;;;;;8.23;4.45;;;7.50;1.00;;;;;;4991055;28;20946;-59
2022/05/30 01:33:24;;;;;;;9.07;4.83;;;7.50;1.00;;;;;;4992186;28;20390;-58
2022/05/30 01:35:50;;;;;;;7.85;4.70;;;7.50;99.90;;;;;;4999860;28;20394;-58
2022/05/30 01:38:16;;;;;;;9.43;5.13;;;7.50;99.90;;;;;;4995865;28;20398;-55
2022/05/30 01:40:41;;;;;;;10.07;4.70;;;7.50;99.90;;;;;;4990452;28;20391;-58
2022/05/30 01:43:07;;;;;;;10.90;5.70;;;7.50;99.90;;;;;;4991217;28;20386;-58
2022/05/30 01:45:33;;;;;;;10.60;5.20;;;7.40;1.00;;;;;;4990801;28;20461;-58
2022/05/30 01:47:58;;;;;;;11.23;5.10;;;7.90;99.90;;;;;;4991109;28;20820;-58
2022/05/30 01:50:27;;;;;;;8.63;5.20;;;7.40;99.90;;;;;;4990200;28;20393;-58
2022/05/30 01:52:53;;;;;;;9.38;4.80;;;7.40;1.00;;;;;;4991217;28;20391;-58
2022/05/30 01:55:19;;;;;;;8.60;5.03;;;7.30;1.00;;;;;;4990292;28;20833;-56
2022/05/30 01:57:44;;;;;;;11.87;5.67;;;7.30;1.00;;;;;;4990815;28;20402;-58
2022/05/30 02:00:11;;;;;;;8.48;5.13;;;7.20;1.00;;;;;;4990737;28;20394;-58
2022/05/30 02:02:37;;;;;;;8.68;5.45;;;7.20;1.00;;;;;;4990420;28;21051;-58
2022/05/30 02:05:04;;;;;;;11.25;5.55;;;7.10;1.00;;;;;;4990195;28;20894;-57
2022/05/30 02:07:30;;;;;;;9.18;5.50;;;7.10;1.00;;;;;;4992602;28;20529;-58
2022/05/30 02:09:56;;;;;;;11.98;5.47;;;7.00;1.00;;;;;;4990675;28;20414;-58
2022/05/30 02:12:21;;;;;;;10.47;5.10;;;7.00;1.00;;;;;;4975336;28;20424;-58
2022/05/30 02:14:47;;;;;;;11.20;5.60;;;7.00;1.00;;;;;;4970551;28;20396;-58
2022/05/30 02:17:13;;;;;;;12.97;5.40;;;6.90;1.00;;;;;;4970462;28;20471;-58
2022/05/30 02:19:42;;;;;;;10.55;5.68;;;6.80;1.00;;;;;;4969346;28;20466;-58
2022/05/30 02:22:12;;;;;;;9.90;5.30;;;6.70;1.00;;;;;;4970118;28;20396;-59
2022/05/30 02:24:38;;;;;;;13.05;5.70;;;6.80;1.00;;;;;;4969072;28;20485;-58
2022/05/30 02:27:05;;;;;;;10.07;5.80;;;6.80;1.00;;;;;;4969800;28;20416;-58
2022/05/30 02:29:31;;;;;;;10.30;5.80;;;6.80;1.00;;;;;;4970209;28;20503;-58
2022/05/30 02:31:57;;;;;;;11.55;6.15;;;6.20;1.00;;;;;;4970156;28;20925;-58
2022/05/30 02:37:07;;;;;;;10.57;5.90;;;6.70;1.00;;;;;;4969919;28;20968;-58
2022/05/30 02:39:32;;;;;;;14.37;6.20;;;6.70;1.00;;;;;;4970227;28;20404;-58
2022/05/30 02:41:58;;;;;;;9.80;5.90;;;6.70;1.00;;;;;;4970267;28;20455;-57
2022/05/30 02:44:25;;;;;;;10.77;5.90;;;6.60;1.00;;;;;;4962860;28;20440;-58
2022/05/30 02:46:53;;;;;;;10.30;6.33;;;6.50;1.00;;;;;;4970010;28;20494;-58
2022/05/30 02:49:20;;;;;;;10.88;6.50;;;6.50;1.00;;;;;;4962882;28;20400;-57
2022/05/30 02:51:46;;;;;;;10.10;5.93;;;6.40;1.00;;;;;;4969747;28;20455;-58
2022/05/30 02:54:12;;;;;;;9.77;6.30;;;6.80;1.00;;;;;;4970335;28;20396;-58
2022/05/30 02:56:39;;;;;;;12.20;6.78;;;6.40;1.00;;;;;;4969665;28;20404;-58
2022/05/30 02:59:05;;;;;;;11.85;6.80;;;6.90;1.00;;;;;;4970335;28;20408;-59
2022/05/30 03:01:32;;;;;;;13.57;7.93;;;6.60;1.00;;;;;;4969614;28;20388;-58
2022/05/30 03:03:59;;;;;;;13.70;7.30;;;6.10;1.00;;;;;;4970181;28;20392;-58
2022/05/30 03:06:25;;;;;;;11.85;6.47;;;6.50;1.00;;;;;;4969264;28;20562;-58
2022/05/30 03:08:51;;;;;;;11.25;6.25;;;6.40;1.00;;;;;;4969970;28;20419;-58
2022/05/30 03:11:16;;;;;;;11.43;6.32;;;6.30;1.00;;;;;;4983457;28;20412;-55
2022/05/30 03:13:43;;;;;;;11.13;6.90;;;6.30;1.00;;;;;;4997230;28;20393;-58
2022/05/30 03:16:09;;;;;;;13.30;6.70;;;6.30;1.00;;;;;;4990640;28;20402;-57
2022/05/30 03:18:34;;;;;;;11.97;6.33;;;6.30;1.00;;;;;;4998930;28;20393;-58
2022/05/30 03:21:00;;;;;;;12.20;7.18;;;6.40;1.00;;;;;;5008875;28;20925;-59
2022/05/30 03:23:26;;;;;;;11.88;6.72;;;6.30;1.00;;;;;;4997888;28;20394;-58
2022/05/30 03:25:51;;;;;;;9.33;5.80;;;6.30;1.00;;;;;;4990040;28;20389;-58
2022/05/30 03:28:17;;;;;;;10.35;6.60;;;6.30;1.00;;;;;;4989499;28;20892;-55
2022/05/30 03:30:43;;;;;;;11.30;6.33;;;6.20;1.00;;;;;;4989034;28;20473;-58
2022/05/30 03:33:10;;;;;;;10.50;5.95;;;6.30;1.00;;;;;;4989592;28;20865;-58
2022/05/30 03:35:37;;;;;;;10.70;6.20;;;6.20;1.00;;;;;;4984625;28;20482;-58
2022/05/30 03:38:04;;;;;;;9.85;5.45;;;6.20;1.00;;;;;;4989185;28;20402;-58
2022/05/30 03:40:29;;;;;;;10.77;6.18;;;6.30;1.00;;;;;;4989710;28;20410;-58
2022/05/30 03:42:55;;;;;;;12.20;5.68;;;6.30;1.00;;;;;;4989622;28;20390;-58
2022/05/30 03:45:21;;;;;;;11.98;5.90;;;6.20;1.00;;;;;;4990325;28;20433;-58
2022/05/30 03:47:48;;;;;;;10.10;5.60;;;6.20;1.00;;;;;;5008688;28;20783;-59
2022/05/30 03:50:24;;;;;;;9.23;5.50;;;6.30;1.00;;;;;;5001218;28;20538;-58
2022/05/30 03:52:51;;;;;;;9.13;5.78;;;6.20;1.00;;;;;;4989394;28;20875;-58
2022/05/30 03:55:19;;;;;;;11.80;5.70;;;6.30;1.00;;;;;;4988988;28;20449;-56
2022/05/30 03:57:45;;;;;;;9.52;5.20;;;6.20;1.00;;;;;;4993054;28;20389;-58
2022/05/30 04:00:14;;;;;;;11.38;5.20;;;6.20;1.00;;;;;;4992951;28;20811;-59
2022/05/30 04:02:40;;;;;;;9.38;5.60;;;6.20;1.00;;;;;;4998229;28;20492;-58
2022/05/30 04:05:08;;;;;;;10.27;5.70;;;6.30;1.00;;;;;;4990166;28;20412;-59
2022/05/30 04:07:35;;;;;;;12.73;5.75;;;6.30;1.00;;;;;;4992165;28;20420;-58
2022/05/30 04:10:00;;;;;;;9.35;5.30;;;6.30;1.00;;;;;;5001118;28;20397;-58
2022/05/30 04:12:26;;;;;;;8.52;4.80;;;6.30;1.00;;;;;;5010809;28;20786;-58
2022/05/30 04:14:53;;;;;;;10.50;5.40;;;6.50;1.00;;;;;;5004191;28;20402;-57
2022/05/30 04:17:19;;;;;;;12.43;5.38;;;6.80;1.00;;;;;;5011069;28;20475;-55
2022/05/30 04:19:44;;;;;;;11.10;5.30;;;6.60;1.00;;;;;;5004713;28;20481;-57
2022/05/30 04:22:10;;;;;;;8.80;5.10;;;6.80;1.00;;;;;;5011494;28;20798;-57
2022/05/30 04:24:36;;;;;;;8.50;4.93;;;6.90;1.00;;;;;;4998272;28;20433;-57
2022/05/30 04:27:01;;;;;;;8.20;4.80;;;7.70;1.00;;;;;;4992573;28;20413;-58
2022/05/30 04:29:29;;;;;;;9.18;5.10;;;7.00;1.00;;;;;;4991609;28;20490;-57
2022/05/30 04:31:55;;;;;;;11.23;5.80;;;7.00;1.00;;;;;;5005461;28;20409;-58
2022/05/30 04:34:21;;;;;;;9.57;5.43;;;7.20;1.00;;;;;;5006059;28;20399;-55
2022/05/30 04:36:47;;;;;;;9.82;5.30;;;7.10;99.90;;;;;;4989100;28;20401;-57
2022/05/30 04:39:14;;;;;;;9.98;5.15;;;7.50;99.90;;;;;;4992386;28;20406;-58
2022/05/30 04:41:40;;;;;;;9.40;5.40;;;7.60;99.90;;;;;;5010840;28;20400;-58
2022/05/30 04:44:06;;;;;;;9.02;5.35;;;7.60;99.90;;;;;;5008002;28;20433;-58
2022/05/30 04:46:32;;;;;;;10.50;5.30;;;8.80;99.90;;;;;;5002801;28;20635;-58
2022/05/30 04:48:58;;;;;;;9.05;5.00;;;7.90;99.90;;;;;;5008455;28;20397;-58
2022/05/30 04:51:24;;;;;;;9.50;4.83;;;8.00;2.70;;;;;;5009497;28;20924;-58
2022/05/30 04:53:49;;;;;;;9.90;4.50;;;8.40;38.70;;;;;;5010110;28;20429;-58
2022/05/30 04:56:17;;;;;;;7.33;4.00;;;9.30;1.00;;;;;;5009585;28;20400;-58
2022/05/30 04:58:43;;;;;;;8.35;3.70;;;10.80;99.90;;;;;;5010035;28;20385;-58
2022/05/30 05:01:10;;;;;;;8.35;3.60;;;12.70;99.90;;;;;;4990928;28;20541;-58
2022/05/30 05:03:37;;;;;;;8.00;3.50;;;14.60;99.90;;;;;;4990202;28;20401;-59
2022/05/30 05:06:12;;;;;;;9.43;3.40;;;15.80;99.90;;;;;;4993520;28;20867;-58
2022/05/30 05:08:43;;;;;;;6.80;3.33;;;16.70;99.90;;;;;;4988178;28;20410;-59
2022/05/30 05:11:12;;;;;;;7.00;3.70;;;17.80;99.90;;;;;;4990416;28;20493;-59
2022/05/30 05:13:41;;;;;;;7.43;3.65;;;18.70;99.90;;;;;;4991301;28;20425;-59
2022/05/30 05:16:07;;;;;;;8.10;5.10;;;19.50;99.90;;;;;;4991313;28;20421;-60
2022/05/30 05:18:32;;;;;;;10.05;5.90;;;20.00;99.90;;;;;;4990095;28;20752;-59
2022/05/30 05:20:58;;;;;;;11.40;7.40;;;20.60;99.90;;;;;;4991813;28;20398;-59
2022/05/30 05:23:24;;;;;;;10.13;7.10;;;21.10;99.90;;;;;;4990766;28;20394;-59
2022/05/30 05:25:49;;;;;;;11.20;7.90;;;21.60;99.90;;;;;;4988651;28;20399;-60
2022/05/30 05:28:15;;;;;;;11.85;7.32;;;22.20;99.90;;;;;;4991199;28;20476;-60
2022/05/30 05:30:42;;;;;;;10.20;7.38;;;22.20;99.90;;;;;;4989788;28;20398;-60
2022/05/30 05:33:09;;;;;;;10.20;7.20;;;21.40;99.90;;;;;;4990847;28;20395;-59
2022/05/30 05:35:39;;;;;;;10.07;7.30;;;21.60;99.90;;;;;;4990014;28;20453;-60
2022/05/30 05:38:05;;;;;;;10.90;7.60;;;22.00;99.90;;;;;;4990763;28;20401;-60
2022/05/30 05:40:31;;;;;;;9.63;8.40;;;21.80;99.90;;;;;;4989769;28;20493;-60
2022/05/30 05:42:56;;;;;;;12.00;6.43;;;22.00;99.90;;;;;;4991141;28;20391;-60
2022/05/30 05:45:22;;;;;;;8.20;6.50;;;21.70;99.90;;;;;;4989881;28;20409;-56
2022/05/30 05:47:48;;;;;;;9.50;6.83;;;21.10;99.90;;;;;;4990842;28;20893;-60
2022/05/30 05:50:14;;;;;;;10.40;6.20;;;20.70;1.00;;;;;;4990804;28;20404;-60
2022/05/30 05:52:39;;;;;;;8.40;6.43;;;20.40;99.90;;;;;;4989337;28;20895;-60
2022/05/30 05:55:06;;;;;;;9.10;6.20;;;20.20;99.90;;;;;;4990554;28;20394;-60
2022/05/30 05:57:32;;;;;;;10.27;6.70;;;21.00;99.90;;;;;;4989730;28;20409;-60
2022/05/30 05:59:57;;;;;;;10.60;6.60;;;21.60;99.90;;;;;;4989681;28;20891;-60
2022/05/30 06:02:23;;;;;;;9.27;6.68;;;22.20;99.90;;;;;;4990245;28;20938;-60
2022/05/30 06:04:52;;;;;;;10.02;7.10;;;22.00;99.90;;;;;;4983179;28;20512;-60
2022/05/30 06:07:18;;;;;;;8.93;6.75;;;21.70;1.00;;;;;;4987590;28;20429;-60
2022/05/30 06:09:44;;;;;;;8.50;5.63;;;21.90;1.00;;;;;;4988366;28;20787;-59
2022/05/30 06:12:10;;;;;;;9.70;8.00;;;22.30;1.00;;;;;;4993555;28;20505;-60
2022/05/30 06:14:36;;;;;;;9.68;7.47;;;23.00;1.00;;;;;;4994386;28;20745;-60
2022/05/30 06:17:02;;;;;;;8.80;6.90;;;22.90;1.00;;;;;;4989624;28;20398;-60
2022/05/30 06:19:28;;;;;;;8.80;6.90;;;22.30;1.00;;;;;;4994037;28;20391;-60
2022/05/30 06:21:54;;;;;;;10.27;6.63;;;22.50;1.00;;;;;;4972955;28;20399;-60
2022/05/30 06:24:19;;;;;;;9.53;6.63;;;22.20;1.00;;;;;;4997429;28;20770;-57
2022/05/30 06:26:45;;;;;;;10.43;7.40;;;22.70;1.00;;;;;;4997556;28;20457;-60
2022/05/30 06:29:12;;;;;;;10.23;7.50;;;23.60;1.00;;;;;;4990185;28;20449;-58
2022/05/30 06:31:38;;;;;;;10.30;7.40;;;23.40;1.00;;;;;;4989639;28;20429;-59
2022/05/30 06:34:04;;;;;;;8.60;6.60;;;23.30;1.00;;;;;;4994701;28;20868;-58
2022/05/30 06:36:31;;;;;;;8.83;4.00;;;23.60;1.00;;;;;;4989172;28;20497;-58
2022/05/30 06:38:57;;;;;;;9.80;7.30;;;22.80;1.00;;;;;;4992438;28;20872;-62
2022/05/30 06:41:29;;;;;;;9.35;7.20;;;22.30;1.00;;;;;;4989069;28;20481;-56
2022/05/30 06:44:06;;;;;;;8.48;6.70;;;22.20;1.00;;;;;;4988936;28;20395;-60
2022/05/30 06:46:34;;;;;;;9.60;6.60;;;22.40;1.00;;;;;;4988765;28;20493;-60
2022/05/30 06:49:01;;;;;;;10.20;7.00;;;22.30;1.00;;;;;;4990330;28;20410;-60
2022/05/30 06:51:29;;;;;;;8.47;4.67;;;23.00;1.00;;;;;;4996873;28;20771;-60
2022/05/30 06:53:56;;;;;;;9.90;6.60;;;;;;;;;;5009003;28;20405;-60
2022/05/30 06:56:24;;;;;;;8.80;6.30;;;24.20;99.90;;;;;;5008780;28;20396;-57
2022/05/30 06:58:51;;;;;;;10.70;8.20;;;24.90;99.90;;;;;;4995709;28;20394;-60
2022/05/30 07:01:23;;;;;;;9.73;5.00;;;25.00;99.90;;;;;;4997135;28;20393;-59
2022/05/30 07:03:49;;;;;;;9.15;4.93;;;25.40;99.90;;;;;;4994782;28;20564;-59
2022/05/30 07:06:18;;;;;;;8.03;4.70;;;25.30;99.90;;;;;;4989987;28;21036;-59
2022/05/30 07:08:45;;;;;;;10.80;8.77;;;26.10;99.90;;;;;;4970495;28;20960;-62
2022/05/30 07:11:15;;;;;;;9.70;4.90;;;26.50;99.90;;;;;;4993388;28;20410;-60
2022/05/30 07:13:41;;;;;;;10.00;5.40;;;26.20;99.90;;;;;;4988441;28;20430;-60
2022/05/30 07:16:09;;;;;;;8.48;5.00;;;25.20;99.90;;;;;;4989625;28;20867;-60
2022/05/30 07:18:34;;;;;;;9.10;7.57;;;25.30;99.90;;;;;;4988172;28;20749;-64
2022/05/30 07:21:03;;;;;;;11.27;7.10;;;24.60;99.90;;;;;;4988718;28;20390;-61
2022/05/30 07:23:30;;;;;;;9.52;6.70;;;24.10;99.90;;;;;;4968666;28;20770;-60
2022/05/30 07:25:58;;;;;;;9.23;7.25;;;24.80;99.90;;;;;;4988876;28;20399;-60
2022/05/30 07:28:25;;;;;;;12.15;7.85;;;24.30;99.90;;;;;;4988462;28;20390;-60
2022/05/30 07:30:51;;;;;;;8.90;7.90;;;22.20;99.90;;;;;;4987094;28;20386;-60
2022/05/30 07:33:17;;;;;;;10.75;7.35;;;22.70;99.90;;;;;;4991453;28;20398;-60
2022/05/30 07:35:43;;;;;;;9.10;7.05;;;23.40;99.90;;;;;;4992214;28;20972;-60
2022/05/30 07:38:09;;;;;;;9.93;7.82;;;24.20;99.90;;;;;;4975287;28;20434;-60
2022/05/30 07:40:34;;;;;;;9.48;7.70;;;23.90;99.90;;;;;;4992849;28;20414;-60
2022/05/30 07:43:00;;;;;;;9.70;7.57;;;22.90;99.90;;;;;;4992867;28;20406;-60
2022/05/30 07:45:26;;;;;;;9.73;7.60;;;22.60;99.90;;;;;;4992217;28;20386;-60
2022/05/30 07:47:51;;;;;;;8.60;7.00;;;23.00;99.90;;;;;;4991728;28;20406;-60
2022/05/30 07:50:17;;;;;;;12.05;6.50;;;23.80;99.90;;;;;;4992118;28;20405;-60
2022/05/30 07:52:43;;;;;;;9.50;7.00;;;24.80;99.90;;;;;;4990968;28;20955;-60
2022/05/30 07:55:09;;;;;;;9.50;6.22;;;24.80;99.90;;;;;;4992572;28;20882;-60
2022/05/30 07:57:54;;;;;;;9.75;7.00;;;24.90;99.90;;;;;;4991416;28;20756;-60
2022/05/30 08:00:23;;;;;;;10.20;7.03;;;24.90;99.90;;;;;;4992546;28;20387;-60
2022/05/30 08:02:49;;;;;;;10.00;6.80;;;24.20;99.90;;;;;;4975487;28;20887;-60
2022/05/30 08:05:15;;;;;;;10.20;7.38;;;24.10;99.90;;;;;;4992474;28;20383;-61
2022/05/30 08:07:45;;;;;;;9.07;6.50;;;24.60;99.90;;;;;;4991101;28;20410;-60
2022/05/30 08:10:13;;;;;;;10.27;6.20;;;25.00;99.90;;;;;;4992949;28;20461;-60
2022/05/30 08:12:39;;;;;;;8.45;4.88;;;26.00;99.90;;;;;;4987082;28;20418;-60
2022/05/30 08:15:05;;;;;;;10.63;5.20;;;26.40;99.90;;;;;;4970422;28;20450;-60
2022/05/30 08:17:31;;;;;;;10.43;5.05;;;25.90;99.90;;;;;;4975678;28;20422;-61
2022/05/30 08:19:59;;;;;;;11.50;6.73;;;25.60;99.90;;;;;;4999546;28;20951;-60
2022/05/30 08:22:25;;;;;;;10.57;5.88;;;25.60;99.90;;;;;;4999991;28;20386;-60
2022/05/30 08:24:52;;;;;;;8.30;5.60;;;25.00;99.90;;;;;;4991857;28;20394;-61
2022/05/30 08:27:18;;;;;;;10.93;6.35;;;26.10;99.90;;;;;;4989484;28;20410;-60
2022/05/30 08:29:44;;;;;;;9.70;6.00;;;26.80;99.90;;;;;;4989474;28;20875;-60
2022/05/30 08:32:11;;;;;;;8.90;5.72;;;27.60;99.90;;;;;;4991864;28;20880;-60
2022/05/30 08:34:37;;;;;;;8.48;6.13;;;27.70;99.90;;;;;;4989845;28;20394;-60
2022/05/30 08:37:05;;;;;;;9.90;5.45;;;26.90;99.90;;;;;;4990445;28;20493;-61
2022/05/30 08:42:15;;;;;;;8.48;5.90;;;26.90;99.90;;;;;;4991680;28;20441;-61
2022/05/30 08:44:41;;;;;;;8.18;5.90;;;26.50;99.90;;;;;;4991449;28;20397;-61
2022/05/30 08:47:15;;;;;;;9.52;6.20;;;24.60;99.90;;;;;;4991836;28;20407;-60
2022/05/30 08:49:52;;;;;;;9.20;5.60;;;23.20;99.90;;;;;;4991040;28;20418;-60
2022/05/30 08:52:48;;;;;;;8.30;5.25;;;24.10;99.90;;;;;;4991629;28;20485;-60
2022/05/30 08:55:42;;;;;;;7.50;5.10;;;24.80;99.90;;;;;;4991093;28;20413;-60
2022/05/30 08:58:33;;;;;;;7.13;4.90;;;26.00;99.90;;;;;;4989815;28;20876;-60
2022/05/30 09:01:26;;;;;;;8.00;4.93;;;26.50;99.90;;;;;;4986111;28;21248;-60
2022/05/30 09:04:10;;;;;;;9.25;5.80;;;25.40;99.90;;;;;;4982794;28;20774;-60
2022/05/30 09:06:44;;;;;;;7.93;4.33;;;25.90;99.90;;;;;;4990650;28;20414;-60
2022/05/30 09:09:37;;;;;;;7.18;4.65;;;27.40;99.90;;;;;;4972820;28;20808;-60
2022/05/30 09:12:13;;;;;;;8.63;3.80;;;27.10;99.90;;;;;;4973299;28;20775;-61
2022/05/30 09:14:53;;;;;;;8.07;4.50;;;27.10;99.90;;;;;;4990311;28;20398;-60
2022/05/30 09:17:35;;;;;;;7.93;4.22;;;27.50;99.90;;;;;;4989977;28;20468;-57
2022/05/30 09:20:05;;;;;;;7.80;4.50;;;28.50;99.90;;;;;;4990817;28;20955;-61
2022/05/30 09:22:31;;;;;;;7.80;2.70;;;29.70;99.90;;;;;;4990056;28;20398;-61
2022/05/30 09:27:42;;;;;;;8.20;3.60;;;31.10;99.90;;;;;;4987319;28;21255;-61
2022/05/30 09:30:11;;;;;;;8.30;5.10;;;31.70;99.90;;;;;;4988789;28;20458;-60
2022/05/30 09:33:16;;;;;;;7.90;4.70;;;28.80;99.90;;;;;;4989904;28;20501;-64
2022/05/30 09:35:42;;;;;;;8.10;4.40;;;28.40;99.90;;;;;;4950533;28;20403;-62
2022/05/30 09:38:23;;;;;;;7.07;4.50;;;28.70;99.90;;;;;;4990318;28;20819;-60
2022/05/30 09:40:54;;;;;;;7.35;4.50;;;28.20;99.90;;;;;;4987794;28;20469;-60
2022/05/30 09:43:30;;;;;;;6.85;4.70;;;27.60;99.90;;;;;;4989978;28;20448;-61
2022/05/30 09:45:56;;;;;;;8.23;4.90;;;27.80;99.90;;;;;;4990698;28;20391;-61
2022/05/30 09:48:23;;;;;;;9.37;5.03;;;27.50;99.90;;;;;;4990634;28;20517;-61
2022/05/30 09:50:56;;;;;;;7.30;4.80;;;27.20;99.90;;;;;;4972818;28;20453;-61
2022/05/30 09:53:52;;;;;;;7.60;5.50;;;26.30;99.90;;;;;;4971722;28;20410;-60
2022/05/30 09:56:19;;;;;;;7.47;4.90;;;26.30;99.90;;;;;;4966872;28;20410;-60
2022/05/30 09:59:02;;;;;;;6.80;3.70;;;26.60;99.90;;;;;;4989413;28;20458;-59
2022/05/30 10:01:31;;;;;;;8.90;3.60;;;27.50;99.90;;;;;;4988899;28;20481;-59
2022/05/30 10:04:19;;;;;;;7.80;3.90;;;28.00;99.90;;;;;;4989470;28;20406;-59
2022/05/30 10:07:20;;;;;;;7.05;3.65;;;28.00;99.90;;;;;;4989692;28;20414;-60
2022/05/30 10:10:00;;;;;;;6.10;3.40;;;28.50;99.90;;;;;;4989525;28;20408;-60
2022/05/30 10:12:40;;;;;;;7.50;3.90;;;28.40;99.90;;;;;;4989438;28;20769;-60
2022/05/30 10:15:26;;;;;;;7.00;4.40;;;28.90;99.90;;;;;;4990000;28;20395;-58
2022/05/30 10:17:54;;;;;;;7.03;3.67;;;28.90;99.90;;;;;;4989777;28;20386;-58
2022/05/30 10:20:39;;;;;;;7.82;4.30;;;27.60;99.90;;;;;;4990143;28;20383;-59
2022/05/30 10:29:37;;;;;;;8.87;5.90;;;23.40;99.90;;;;;;4989598;28;20876;-59
2022/05/30 10:32:13;;;;;;;7.60;3.10;;;22.00;99.90;;;;;;4990311;28;20386;-59
2022/05/30 10:34:51;;;;;;;7.60;3.13;;;21.30;99.90;;;;;;4988110;28;20811;-59
2022/05/30 10:37:35;;;;;;;7.72;5.40;;;20.50;99.90;;;;;;4989896;28;20395;-60
2022/05/30 10:40:17;;;;;;;8.02;4.70;;;20.20;99.90;;;;;;4989709;28;20395;-59
2022/05/30 10:43:07;;;;;;;7.70;2.20;;;19.90;99.90;;;;;;4988202;28;20422;-59
2022/05/30 10:45:52;;;;;;;6.75;2.20;;;19.60;99.90;;;;;;4989396;28;20478;-59
2022/05/30 10:48:29;;;;;;;6.22;2.10;;;19.40;99.90;;;;;;4989928;28;20559;-59
2022/05/30 10:51:22;;;;;;;7.90;2.30;;;19.50;99.90;;;;;;4989008;28;20527;-59
2022/05/30 10:54:25;;;;;;;5.93;1.83;;;19.90;99.90;;;;;;4988509;28;20524;-59
2022/05/30 10:56:55;;;;;;;6.72;2.20;;;20.00;99.90;;;;;;4984324;28;20609;-59
2022/05/30 10:59:34;;;;;;;8.30;1.95;;;19.80;99.90;;;;;;4987049;28;20422;-59
2022/05/30 11:02:12;;;;;;;6.40;2.00;;;19.90;99.90;;;;;;4986986;28;20403;-58
2022/05/30 11:05:10;;;;;;;6.28;2.17;;;20.00;99.90;;;;;;4987740;28;20876;-62
2022/05/30 11:07:59;;;;;;;6.10;2.10;;;20.20;99.90;;;;;;4985158;28;20497;-61
2022/05/30 11:10:45;;;;;;;5.90;2.30;;;19.90;99.90;;;;;;4989531;28;20419;-57
2022/05/30 11:13:23;;;;;;;6.60;1.90;;;20.20;99.90;;;;;;4989493;28;20406;-61
2022/05/30 11:15:54;;;;;;;7.43;1.90;;;20.60;99.90;;;;;;4984766;28;20406;-58
2022/05/30 11:18:38;;;;;;;8.27;2.10;;;21.10;99.90;;;;;;4988395;28;20391;-59
2022/05/30 11:21:18;;;;;;;6.45;2.22;;;21.50;99.90;;;;;;4987205;28;20573;-59
2022/05/30 11:23:45;;;;;;;6.00;2.13;;;22.00;99.90;;;;;;4987882;28;20378;-62
2022/05/30 11:26:42;;;;;;;5.65;2.10;;;22.30;99.90;;;;;;4988991;28;20481;-62
2022/05/30 11:29:32;;;;;;;6.80;2.00;;;22.20;99.90;;;;;;4987511;28;20486;-62
2022/05/30 11:32:02;;;;;;;5.70;2.20;;;22.80;99.90;;;;;;4987738;28;20892;-63
2022/05/30 11:34:52;;;;;;;6.70;1.90;;;22.70;99.90;;;;;;4986105;28;20744;-58
2022/05/30 11:37:18;;;;;;;6.30;1.90;;;22.50;99.90;;;;;;4986339;28;20418;-62
2022/05/30 11:39:43;;;;;;;5.90;1.80;;;22.70;99.90;;;;;;4984685;28;20422;-61
2022/05/30 11:42:15;;;;;;;6.70;2.30;;;22.80;99.90;;;;;;4987887;28;20462;-59
2022/05/30 11:45:31;;;;;;;5.90;2.00;;;22.80;99.90;;;;;;4983508;28;20437;-61
2022/05/30 11:48:19;;;;;;;5.00;1.80;;;22.60;99.90;;;;;;4955097;28;20777;-62
2022/05/30 11:51:02;;;;;;;7.25;1.80;;;22.20;99.90;;;;;;4986980;28;20800;-61
2022/05/30 11:53:52;;;;;;;6.32;2.90;;;21.80;99.90;;;;;;4986523;28;20398;-57
2022/05/30 11:56:26;;;;;;;6.90;3.40;;;21.60;99.90;;;;;;4987547;28;20403;-60
2022/05/30 11:58:58;;;;;;;6.40;2.10;;;21.60;99.90;;;;;;4986719;28;20394;-62
2022/05/30 12:01:27;;;;;;;5.07;1.60;;;22.00;99.90;;;;;;4986947;28;20489;-60
2022/05/30 12:04:11;;;;;;;4.95;1.67;;;22.90;99.90;;;;;;4988552;28;20445;-62
2022/05/30 12:06:53;;;;;;;5.72;1.70;;;22.70;99.90;;;;;;4988507;28;20422;-61
2022/05/30 12:09:45;;;;;;;6.68;1.80;;;22.50;99.90;;;;;;4989877;28;20423;-63
2022/05/30 12:12:56;;;;;;;6.40;1.88;;;23.20;99.90;;;;;;4999170;28;20600;-57
2022/05/30 12:15:28;;;;;;;6.03;1.80;;;22.60;99.90;;;;;;4958658;28;20405;-60
2022/05/30 12:24:12;;;;;;;5.90;2.10;;;21.30;99.90;;;;;;4994924;28;20378;-59
2022/05/30 12:26:53;;;;;;;5.00;1.80;;;21.00;99.90;;;;;;4996097;28;20455;-58
2022/05/30 12:29:37;;;;;;;6.50;1.90;;;21.20;99.90;;;;;;4993056;28;20414;-60
2022/05/30 12:32:09;;;;;;;5.80;1.80;;;21.30;99.90;;;;;;4992543;28;20518;-60
2022/05/30 12:37:48;;;;;;;6.40;2.30;;;21.50;99.90;;;;;;4990934;28;20407;-60
2022/05/30 12:40:25;;;;;;;6.03;2.00;;;21.20;99.90;;;;;;4991669;28;20457;-59
2022/05/30 12:43:27;;;;;;;6.53;2.17;;;20.80;99.90;;;;;;4986671;28;20483;-59
2022/05/30 12:45:55;;;;;;;6.50;1.90;;;20.90;99.90;;;;;;4990871;28;20941;-61
2022/05/30 12:48:31;;;;;;;7.13;2.30;;;21.20;99.90;;;;;;4995619;28;20444;-61
2022/05/30 12:50:56;;;;;;;6.13;1.85;;;21.70;99.90;;;;;;4991875;28;20825;-61
2022/05/30 12:53:39;;;;;;;5.63;1.80;;;21.80;99.90;;;;;;4992091;28;20474;-62
2022/05/30 12:56:04;;;;;;;6.22;2.10;;;22.20;99.90;;;;;;4991916;28;20399;-63
2022/05/30 12:58:36;;;;;;;6.60;1.90;;;22.70;99.90;;;;;;4996836;28;20445;-57
2022/05/30 13:01:26;;;;;;;5.38;1.90;;;22.70;99.90;;;;;;4992802;28;20397;-62
2022/05/30 13:04:26;;;;;;;6.22;1.90;;;22.30;99.90;;;;;;4994858;28;20809;-59
2022/05/30 13:06:54;;;;;;;5.20;2.00;;;22.10;99.90;;;;;;4987719;28;20432;-62
2022/05/30 13:09:35;;;;;;;6.10;1.90;;;22.50;99.90;;;;;;4993567;28;20847;-63
2022/05/30 13:12:17;;;;;;;7.00;2.10;;;22.60;99.90;;;;;;4996237;28;20426;-61
2022/05/30 13:15:01;;;;;;;6.50;2.00;;;23.00;99.90;;;;;;4992560;28;20391;-63
2022/05/30 13:17:35;;;;;;;6.93;2.10;;;23.60;99.90;;;;;;4991842;28;20398;-56
2022/05/30 13:20:14;;;;;;;5.40;1.70;;;23.40;99.90;;;;;;4992113;28;20386;-63
2022/05/30 13:22:45;;;;;;;6.30;1.70;;;23.10;99.90;;;;;;4989456;28;20426;-62
2022/05/30 13:25:42;;;;;;;6.57;2.17;;;23.00;99.90;;;;;;5004677;28;20429;-61
2022/05/30 13:28:10;;;;;;;6.35;2.20;;;23.00;99.90;;;;;;4991695;28;20468;-62
2022/05/30 13:30:37;;;;;;;5.88;1.80;;;23.00;99.90;;;;;;4990217;28;20402;-62
2022/05/30 13:33:11;;;;;;;5.88;1.60;;;22.80;99.90;;;;;;4991513;28;20386;-62
2022/05/30 13:35:39;;;;;;;6.47;2.00;;;23.10;99.90;;;;;;4984242;28;20744;-61
2022/05/30 13:38:08;;;;;;;5.82;2.10;;;22.40;99.90;;;;;;4983868;28;20422;-61